This is the latest recevied weather packets stored in our database for station/object EB1BWO-10. If no packets are shown the sender has not sent any weather packets the latest 10 day(s).
| Time | Temp. | Humidity | Pressure | Rain* | Wind** | Luminosity | Snow |
|---|---|---|---|---|---|---|---|
| 1777766271 | 10.56° C | 93% | 949 hPa | - | - | - | - |
| 1777765371 | 10.56° C | 93% | 949.3 hPa | - | - | - | - |
| 1777764471 | 11.11° C | 92% | 949.3 hPa | - | - | - | - |
| 1777763571 | 10.56° C | 93% | 949.3 hPa | - | - | - | - |
| 1777762671 | 11.11° C | 93% | 949.5 hPa | - | - | - | - |
| 1777761771 | 11.11° C | 92% | 949.5 hPa | - | - | - | - |
| 1777760871 | 11.11° C | 92% | 949.4 hPa | - | - | - | - |
| 1777759971 | 11.11° C | 93% | 949.4 hPa | - | - | - | - |
| 1777759070 | 10.56° C | 93% | 949.5 hPa | - | - | - | - |
| 1777758170 | 10.56° C | 92% | 949.4 hPa | - | - | - | - |
| 1777757270 | 10.56° C | 93% | 949.4 hPa | - | - | - | - |
| 1777756370 | 10.56° C | 94% | 949.4 hPa | - | - | - | - |
| 1777755470 | 9.44° C | 93% | 948 hPa | - | - | - | - |
| 1777754570 | 10.56° C | 94% | 949.3 hPa | - | - | - | - |
| 1777753670 | 11.11° C | 93% | 949.3 hPa | - | - | - | - |
| 1777752770 | 11.11° C | 92% | 949.5 hPa | - | - | - | - |
| 1777751870 | 10° C | 93% | 947.7 hPa | - | - | - | - |
| 1777750970 | 11.11° C | 93% | 949.6 hPa | - | - | - | - |
| 1777750070 | 11.67° C | 92% | 949.5 hPa | - | - | - | - |
| 1777749170 | 11.11° C | 93% | 949.6 hPa | - | - | - | - |
| 1777747371 | 11.67° C | 95% | 949.5 hPa | - | - | - | - |
| 1777746471 | 11.67° C | 96% | 949.5 hPa | - | - | - | - |
| 1777745571 | 11.67° C | 98% | 949.6 hPa | - | - | - | - |
| 1777744670 | 11.67° C | 98% | 949.3 hPa | - | - | - | - |
| 1777743770 | 11.67° C | 100% | 949.3 hPa | - | - | - | - |
* Rain since midnight (hover to see other rain measurements)
** Current wind speed in m/s (hover to see current wind gust speed)